Boulder City, Nevada Weather observations

Data are for observation ending at time listed.
 Day   Time    Ave.   Ave.  Ave.  Vector   Max.   Stn.    Total    Solar   Ave.  
  of    of     Air    Rel.  Wind   Wind    Wind   Baro.  Precip.   Rad.    Soil  
Year   Day     Temp.  Hum.  Speed  Dir.    Gust   Pres.                    Temp. 
2026   (PST)    F      %     mph   deg.    mph     mb.     in.     W/m2     F   
------------------------------------------------------------------------------
 129    0:10   83.8    10    6.5   225      8.9   927.2    0.00       0    89.5
 129    0:20   83.6    11    5.1   233      7.7   927.2    0.00       0    89.4
 129    0:30   83.5    11    4.5   234      6.6   927.1    0.00       0    89.2
 129    0:40   83.2    11    4.5   225      7.5   927.1    0.00       0    89.1
 129    0:50   82.2    12    3.2   220      4.5   927.1    0.00       0    89.0
 129    1:00   80.9    12    4.3   171      6.9   927.1    0.00       0    88.8
 129    1:10   79.4    14    3.5   191      5.3   927.1    0.00       0    88.6
 129    1:20   78.6    14    4.9   163      8.0   927.1    0.00       0    88.5
 129    1:30   80.1    13    4.5   142      7.5   927.1    0.00       0    88.4
 129    1:40   79.5    13    3.3   228      5.1   927.1    0.00       0    88.2
 129    1:50   79.0    14    3.3   224      4.8   927.1    0.00       0    88.1
 129    2:00   78.0    14    3.4   225      5.6   927.1    0.00       0    88.0
 129    2:10   77.6    15    2.1   246      4.9   927.0    0.00       0    87.9
 129    2:20   77.9    15    3.6   240      4.7   927.0    0.00       0    87.7
 129    2:30   77.3    15    3.5   228      4.6   926.9    0.00       0    87.6
 129    2:40   74.9    16    3.8   201      5.6   926.9    0.00       0    87.5
 129    2:50   75.5    16    4.4   221      6.7   926.9    0.00       0    87.3
 129    3:00   75.1    17    4.1   197      5.6   926.9    0.00       0    87.2
 129    3:10   74.9    17    3.3   209      4.3   926.9    0.00       0    87.1
 129    3:20   75.3    17    3.3   208      4.7   926.9    0.00       0    86.9
 129    3:30   74.4    17    3.6   210      5.5   926.9    0.00       0    86.8
 129    3:40   74.4    18    3.4   215      4.8   926.9    0.00       0    86.6
 129    3:50   73.7    18    3.4   210      4.9   926.9    0.00       0    86.5
 129    4:00   73.6    18    3.5   215      5.0   926.9    0.00       0    86.4
 129    4:10   73.2    18    3.2   206      5.0   926.9    0.00       0    86.2
 129    4:20   72.9    18    2.0   231      4.4   926.9    0.00       0    86.1
 129    4:30   73.1    18    2.8   205      4.2   927.0    0.00       1    85.9
 129    4:40   72.8    18    2.0   227      3.7   927.1    0.00       3    85.8
 129    4:50   73.1    17    0.5   222      1.8   927.2    0.00       8    85.7
 129    5:00   73.6    17    1.5   197      2.3   927.4    0.00      18    85.6
 129    5:10   74.4    16    0.4   253      1.8   927.4    0.00      21    85.4
 129    5:20   74.8    17    0.6   217      1.8   927.6    0.00      27    85.3
 129    5:30   76.0    16    0.0     0      0.0   927.7    0.00      31    85.1
 129    5:40   78.5    15    0.1   250      1.1   927.8    0.00      72    85.0
 129    5:50   81.3    14    0.1    61      0.9   928.1    0.00     187    84.9
 129    6:00   83.5    14    0.8    22      2.3   928.3    0.00     221    84.7
 129    6:10   83.8    13    0.9   351      1.7   928.6    0.00     256    84.6
 129    6:20   85.0    13    0.3   339      1.4   928.8    0.00     290    84.4
 129    6:30   86.7    12    0.5    95      1.7   929.0    0.00     325    84.3
 129    6:40   86.1    12    2.0    81      3.9   929.2    0.00     360    84.1
 129    6:50   86.6    12    2.8    86      5.0   929.4    0.00     396    84.0
 129    7:00   86.4    12    2.8   337      8.9   929.6    0.00     429    83.9
 129    7:10   85.4    11    3.3   339      7.1   929.7    0.00     462    83.9
 129    7:20   85.8    10    4.5   328     10.7   929.7    0.00     496    83.8
 129    7:30   86.4    10    4.1   350      9.1   929.9    0.00     527    83.8
 129    7:40   87.1    11    3.3    11      6.9   929.9    0.00     558    83.8
 129    7:50   86.9    13    3.3    10      6.6   930.0    0.00     588    83.7
 129    8:00   86.3    13    3.6    11      6.9   930.1    0.00     617    83.7
 129    8:10   86.9    12    2.2    35      4.2   930.0    0.00     646    83.7
 129    8:20   87.9    11    2.3   358      5.6   930.1    0.00     674    83.8
 129    8:30   88.4    11    1.6   351      4.1   930.1    0.00     701    83.8
 129    8:40   89.0    11    2.2    59      4.5   930.1    0.00     726    83.9
 129    8:50   90.0    11    2.6    30      5.6   930.3    0.00     750    84.0
 129    9:00   90.1    10    2.4    30      5.4   930.4    0.00     773    84.1
 129    9:10   90.1    10    2.1    56      7.5   930.5    0.00     795    84.2
 129    9:20   91.0    10    2.6    49      7.4   930.6    0.00     803    84.4
 129    9:30   91.0    10    3.1    62      5.9   930.6    0.00     656    84.6
 129    9:40   90.9    10    4.2    64      9.0   930.6    0.00     821    84.8
 129    9:50   91.6     9    3.6    46      7.7   930.5    0.00     836    84.9
 129   10:00   92.2     9    3.8    39      8.8   930.4    0.00     870    85.2
 129   10:10   92.4     9    4.6    34     11.2   930.4    0.00     900    85.4
 129   10:20   92.5     9    4.4    26     10.2   930.5    0.00     905    85.6
 129   10:30   93.2     8    4.5    25     10.0   930.4    0.00     915    85.9
 129   10:40   93.0     8    5.2    31     12.4   930.4    0.00     930    86.1
 129   10:50   93.3     8    4.5    40      9.6   930.2    0.00     873    86.5
 129   11:00   93.5     8    4.3    60      8.8   930.2    0.00     793    86.8
 129   11:10   93.5     8    4.2    37      8.6   930.2    0.00     851    87.1
 129   11:20   94.1     8    4.1    29      9.3   930.0    0.00     871    87.5
 129   11:30   95.0     8    3.6    30      8.3   929.9    0.00     959    87.8
 129   11:40   95.1     8    3.1    52      9.9   929.8    0.00     959    88.1
 129   11:50   95.3     8    4.4    14      8.9   929.7    0.00     956    88.4
 129   12:00   95.4     8    4.2    32      9.2   929.6    0.00     953    88.7
 129   12:10   95.7     8    3.7    41      6.9   929.5    0.00     947    89.1
 129   12:20   96.6     7    3.9    28      9.0   929.4    0.00     939    89.4
 129   12:30   96.2     8    4.0     4      9.1   929.3    0.00     930    89.8
 129   12:40   96.3     8    3.6   358      8.3   929.2    0.00     919    90.1
 129   12:50   97.1     7    3.3    38     10.1   929.2    0.00     907    90.4
 129   13:00   96.8     7    4.1   106      8.8   929.0    0.00     895    90.8
 129   13:10   97.5     7    4.1    19      9.1   928.9    0.00     880    91.1
 129   13:20   97.4     7    3.6   320     11.2   928.8    0.00     863    91.4
 129   13:30   97.0     7    2.4    13      6.2   928.7    0.00     844    91.8
 129   13:40   97.2     7    3.8    55     10.2   928.7    0.00     824    92.1
 129   13:50   98.6     6    2.3    80      6.1   928.8    0.00     803    92.5
 129   14:00   98.8     6    2.3   335      7.0   928.6    0.00     783    92.8
 129   14:10   99.3     6    2.6    15      7.5   928.5    0.00     758    93.1
 129   14:20   99.0     6    4.6     9     11.0   928.3    0.00     732    93.4
 129   14:30   98.4     6    2.8    15      6.6   928.1    0.00     708    93.6
 129   14:40   98.7     6    3.9    58      7.6   927.9    0.00     682    93.9
 129   14:50   99.6     6    2.2    47      7.7   927.8    0.00     652    94.1
 129   15:00   99.6     6    3.7    40      8.8   927.7    0.00     621    94.4
 129   15:10   99.7     6    4.6   121     10.4   927.5    0.00     584    94.6
 129   15:20   99.7     6    3.3   140     10.1   927.3    0.00     556    94.7
 129   15:30   99.5     6    3.2    32      8.5   927.2    0.00     528    95.0
 129   15:40   99.3     6    4.4    46      7.8   927.1    0.00     496    95.1
 129   15:50   99.4     6    3.2    24      6.6   927.1    0.00     464    95.3
 129   16:00   99.1     6    4.1    14      8.9   927.0    0.00     431    95.5
 129   16:10   99.2     6    3.6    12     10.4   927.0    0.00     397    95.5
 129   16:20   98.8     6    4.4     5      7.7   927.0    0.00     365    95.6
 129   16:30   98.6     6    4.0    24      8.0   926.8    0.00     332    95.7
 129   16:40   98.4     6    4.3    13      9.5   926.7    0.00     297    95.8
 129   16:50   98.4     6    3.5    18      8.3   926.7    0.00     263    95.9
 129   17:00   97.8     6    2.9    10      6.4   926.6    0.00     233    95.9
 129   17:10   97.5     6    2.1     6      4.8   926.5    0.00     203    95.9
 129   17:20   96.5     7    2.7     8      5.3   926.3    0.00     174    95.9
 129   17:30   96.0     7    2.6    28      6.9   926.2    0.00     145    95.9
 129   17:40   95.7     7    3.0    16      6.2   926.1    0.00     117    95.9
 129   17:50   95.3     7    2.9     9      5.2   926.1    0.00      81    95.9
 129   18:00   94.9     7    3.0     7      4.8   926.1    0.00      27    95.8
 129   18:10   94.1     8    2.3   359      3.7   926.0    0.00      22    95.7
 129   18:20   93.4     8    1.9     3      3.5   926.0    0.00      17    95.7
 129   18:30   92.8     8    1.5   342      2.4   926.0    0.00      10    95.7
 129   18:40   91.9     8    0.9   310      1.9   926.0    0.00       4    95.6
 129   18:50   90.5     8    1.4   297      2.2   926.0    0.00       1    95.6
 129   19:00   89.6     8    0.9   293      1.5   926.0    0.00       0    95.5
 129   19:10   89.2     8    1.2   228      2.0   926.0    0.00       0    95.4
 129   19:20   88.8     9    1.9   238      2.6   926.0    0.00       0    95.3
 129   19:30   88.0     9    1.5   263      2.4   926.1    0.00       0    95.1
 129   19:40   87.3     9    1.2   276      2.1   926.1    0.00       0    95.1
 129   19:50   86.7     9    2.0   202      3.0   926.2    0.00       0    94.9
 129   20:00   87.0     9    1.8   206      3.2   926.4    0.00       0    94.8
 129   20:10   87.4     9    1.7   240      3.4   926.5    0.00       0    94.7
 129   20:20   86.6     9    2.2   224      4.0   926.6    0.00       0    94.6
 129   20:30   86.1     9    2.9   209      4.3   926.7    0.00       0    94.4
 129   20:40   86.4     9    2.7   224      4.7   926.8    0.00       0    94.3
 129   20:50   86.6     9    2.8   205      4.5   926.9    0.00       0    94.1
 129   21:00   86.1     9    2.9   197      4.2   926.9    0.00       0    94.0
 129   21:10   85.6     9    2.3   206      3.1   926.8    0.00       0    93.8
 129   21:20   84.2    10    2.9   214      4.2   926.8    0.00       0    93.7
 129   21:30   83.5    10    3.8   207      4.8   926.8    0.00       0    93.5
 129   21:40   83.4    10    3.4   208      5.0   926.8    0.00       0    93.4
 129   21:50   83.5    10    2.6   209      3.4   926.7    0.00       0    93.2
 129   22:00   83.9    10    2.1   199      3.1   926.8    0.00       0    93.0
 129   22:10   83.6    10    2.5   196      3.8   926.8    0.00       0    92.9
 129   22:20   83.1    10    3.6   207      4.7   926.9    0.00       0    92.7
 129   22:30   84.4    10    4.2   219      6.0   926.9    0.00       0    92.5
 129   22:40   83.3    10    2.6   224      3.8   926.9    0.00       0    92.3
 129   22:50   83.0    10    2.0    17     10.1   927.2    0.00       0    92.1
 129   23:00   84.8    10    2.3    11      6.3   927.2    0.00       0    92.0
 129   23:10   85.1     9    1.6   268      3.3   927.3    0.00       0    91.8
 129   23:20   83.9     9    1.5   267      3.1   927.2    0.00       0    91.7
 129   23:30   84.0     9    2.0   292      5.6   927.2    0.00       0    91.5
 129   23:40   84.5     9    1.6   290      4.4   927.2    0.00       0    91.4
 129   23:50   84.6     9    1.3    12      3.4   927.2    0.00       0    91.2
 130    0:00   83.7    10    1.0   271      2.3   927.3    0.00       0    91.1

Return to Boulder City, Nevada graphs page.


Western Regional Climate Center,wrcc@dri.edu